Impacts TAF Board INFO
FOR SITUATIONAL AWARENESS. NOT TO BE USED FOR FLIGHT PLANNING PURPOSES.
IDs:

KJFK - New York/Kennedy Int, NY, US

Issued at 1437 UTC 29 May 2017
Updated at 1513 UTC 29 May 2017
Potential Impact None Slight Moderate High
Time1451Z 29/16Z 29/17Z 29/18Z 29/19Z 29/20Z 29/21Z 29/22Z 29/23Z 30/00Z 30/01Z 30/02Z 30/03Z 30/04Z>>
Type OBS PRVL PRVL PRVL PRVL PRVL PRVL PRVL PRVL PRVL PRVL PRVL PRVL PRVL
VIS 10 6 5 5 5 5 5 5 5 5 5 5 5 5
CIG 17 15 15 15 15 15 15 15 15 15 15 15 15 15
Cover OVC OVC OVC OVC OVC OVC OVC OVC OVC OVC OVC OVC OVC OVC
FltCat MVFR MVFR MVFR MVFR MVFR MVFR MVFR MVFR MVFR MVFR MVFR MVFR MVFR MVFR
WX -RA -RA -DZ BR -DZ BR -DZ BR -DZ BR -DZ BR -DZ BR BR BR BR BR BR BR
WDir 80 70 70 70 70 70 70 70 80 80 80 80 80 80
WSpd 9 10 9 9 9 9 9 9 6 6 6 6 6 6
WGst -- -- -- -- -- -- -- -- -- -- -- -- -- --

Raw TAF
KJFK 291437Z 2915/3018 07010KT 6SM -RA FEW008 OVC015
  TEMPO 2915/2916 3SM -SHRA BR
  FM291700 07009KT 5SM -DZ BR OVC015
  FM292300 08006KT 5SM BR OVC015
  FM300500 11005KT 5SM BR OVC009
  FM300700 12005KT 5SM BR OVC006
  FM301400 13005KT 5SM BR OVC015
  FM301600 14007KT 5SM BR BKN025


Raw METAR
KJFK 291451Z 08009KT 10SM -RA FEW011 BKN017 OVC042 14/13 A2994 RMK AO2 RAB28 SLP138 P0000 60002 T01440128 53014
KJFK 291351Z 07011KT 10SM BKN013 OVC042 14/13 A2992 RMK AO2 RAE39 SLP132 P0002 T01440133
KJFK 291251Z 08008KT 8SM -RA FEW008 BKN017 OVC085 14/13 A2991 RMK AO2 SLP129 P0000 T01440128

METAR Board
Radar Display
Forecast Discussion

FOR SITUATIONAL AWARENESS. NOT TO BE USED FOR FLIGHT PLANNING PURPOSES.

Page loaded:  15:13 UTC  |   08:13 AM Pacific  |   09:13 AM Mountain  |   10:13 AM Central  |   11:13 AM Eastern

 

ADVISORIES

FORECASTS

FORECASTS

OBSERVATIONS

USER TOOLS

ABOUT US